sensor_id;sensor_type;location;lat;lon;timestamp;P1;durP1;ratioP1;P2;durP2;ratioP2
63406;SDS011;49543;45.892;10.838;2023-07-08T09:23:28;6.45;;;5.25;;
63406;SDS011;49543;45.892;10.838;2023-07-08T09:26:39;7.20;;;5.40;;
63406;SDS011;49543;45.892;10.838;2023-07-08T09:28:48;7.38;;;5.07;;
63406;SDS011;49543;45.892;10.838;2023-07-08T09:31:23;7.05;;;5.65;;
63406;SDS011;49543;45.892;10.838;2023-07-08T09:34:04;6.03;;;5.30;;
63406;SDS011;49543;45.892;10.838;2023-07-08T09:36:38;6.78;;;5.25;;
63406;SDS011;49543;45.892;10.838;2023-07-08T09:39:05;6.03;;;5.43;;
63406;SDS011;49543;45.892;10.838;2023-07-08T09:41:35;5.72;;;5.07;;
63406;SDS011;49543;45.892;10.838;2023-07-08T09:44:10;5.85;;;5.00;;
63406;SDS011;49543;45.892;10.838;2023-07-08T09:46:43;5.97;;;5.00;;
63406;SDS011;49543;45.892;10.838;2023-07-08T09:51:45;6.75;;;5.10;;
63406;SDS011;49543;45.892;10.838;2023-07-08T09:54:11;9.63;;;5.22;;
63406;SDS011;49543;45.892;10.838;2023-07-08T09:56:40;6.40;;;5.18;;
63406;SDS011;49543;45.892;10.838;2023-07-08T09:59:17;6.07;;;4.85;;
63406;SDS011;49543;45.892;10.838;2023-07-08T10:01:46;6.93;;;4.97;;
63406;SDS011;49543;45.892;10.838;2023-07-08T10:04:11;8.13;;;4.97;;
63406;SDS011;49543;45.892;10.838;2023-07-08T10:06:37;5.85;;;4.82;;
63406;SDS011;49543;45.892;10.838;2023-07-08T10:09:03;6.75;;;5.20;;
63406;SDS011;49543;45.892;10.838;2023-07-08T10:11:39;6.68;;;5.18;;
63406;SDS011;49543;45.892;10.838;2023-07-08T10:14:43;7.90;;;5.55;;
63406;SDS011;49543;45.892;10.838;2023-07-08T10:17:16;5.90;;;4.47;;
63406;SDS011;49543;45.892;10.838;2023-07-08T10:19:42;5.55;;;4.68;;
63406;SDS011;49543;45.892;10.838;2023-07-08T10:24:40;5.47;;;4.60;;
63406;SDS011;49543;45.892;10.838;2023-07-08T10:27:25;7.30;;;4.85;;
63406;SDS011;49543;45.892;10.838;2023-07-08T10:33:08;5.07;;;4.35;;
63406;SDS011;49543;45.892;10.838;2023-07-08T10:41:54;5.80;;;4.63;;
63406;SDS011;49543;45.892;10.838;2023-07-08T10:44:37;5.50;;;4.90;;
63406;SDS011;49543;45.892;10.838;2023-07-08T10:55:57;5.70;;;4.28;;
63406;SDS011;49543;45.892;10.838;2023-07-08T11:01:20;5.05;;;4.55;;
63406;SDS011;49543;45.892;10.838;2023-07-08T11:06:50;5.60;;;4.97;;
63406;SDS011;49543;45.892;10.838;2023-07-08T11:09:22;5.72;;;4.30;;
63406;SDS011;49543;45.892;10.838;2023-07-08T11:12:03;7.15;;;5.22;;
63406;SDS011;49543;45.892;10.838;2023-07-08T11:14:45;5.57;;;4.63;;
63406;SDS011;49543;45.892;10.838;2023-07-08T11:17:24;5.53;;;4.80;;
63406;SDS011;49543;45.892;10.838;2023-07-08T11:19:57;6.15;;;4.55;;
63406;SDS011;49543;45.892;10.838;2023-07-08T11:22:29;6.30;;;4.25;;
63406;SDS011;49543;45.892;10.838;2023-07-08T11:24:56;5.55;;;4.40;;
63406;SDS011;49543;45.892;10.838;2023-07-08T11:27:30;6.13;;;4.78;;
63406;SDS011;49543;45.892;10.838;2023-07-08T11:32:31;6.35;;;4.78;;
63406;SDS011;49543;45.892;10.838;2023-07-08T11:34:59;6.22;;;4.40;;
63406;SDS011;49543;45.892;10.838;2023-07-08T11:37:27;6.53;;;4.78;;
63406;SDS011;49543;45.892;10.838;2023-07-08T11:42:40;6.07;;;4.40;;
63406;SDS011;49543;45.892;10.838;2023-07-08T11:47:50;5.60;;;4.80;;
63406;SDS011;49543;45.892;10.838;2023-07-08T11:50:20;6.43;;;5.35;;
63406;SDS011;49543;45.892;10.838;2023-07-08T11:52:59;6.25;;;4.70;;
63406;SDS011;49543;45.892;10.838;2023-07-08T11:58:29;5.38;;;4.68;;
63406;SDS011;49543;45.892;10.838;2023-07-08T12:01:18;5.63;;;4.43;;
63406;SDS011;49543;45.892;10.838;2023-07-08T12:03:55;5.35;;;4.55;;
63406;SDS011;49543;45.892;10.838;2023-07-08T12:08:57;6.63;;;4.70;;
63406;SDS011;49543;45.892;10.838;2023-07-08T12:11:28;5.70;;;4.20;;
63406;SDS011;49543;45.892;10.838;2023-07-08T12:14:01;5.80;;;4.40;;
63406;SDS011;49543;45.892;10.838;2023-07-08T12:16:29;6.32;;;4.47;;
63406;SDS011;49543;45.892;10.838;2023-07-08T12:18:59;4.88;;;4.32;;
63406;SDS011;49543;45.892;10.838;2023-07-08T12:21:29;5.30;;;4.43;;
63406;SDS011;49543;45.892;10.838;2023-07-08T12:23:55;5.70;;;4.85;;
63406;SDS011;49543;45.892;10.838;2023-07-08T12:26:21;7.47;;;4.63;;
63406;SDS011;49543;45.892;10.838;2023-07-08T12:28:49;4.85;;;4.35;;
63406;SDS011;49543;45.892;10.838;2023-07-08T12:31:17;5.53;;;4.57;;
63406;SDS011;49543;45.892;10.838;2023-07-08T12:33:45;7.07;;;4.60;;
63406;SDS011;49543;45.892;10.838;2023-07-08T12:36:22;6.38;;;4.80;;
63406;SDS011;49543;45.892;10.838;2023-07-08T12:41:18;6.60;;;4.47;;
63406;SDS011;49543;45.892;10.838;2023-07-08T12:43:44;5.35;;;4.57;;
63406;SDS011;49543;45.892;10.838;2023-07-08T12:46:10;6.32;;;4.25;;
63406;SDS011;49543;45.892;10.838;2023-07-08T12:48:37;6.55;;;4.88;;
63406;SDS011;49543;45.892;10.838;2023-07-08T12:51:04;4.97;;;4.18;;
63406;SDS011;49543;45.892;10.838;2023-07-08T12:53:31;6.25;;;4.38;;
63406;SDS011;49543;45.892;10.838;2023-07-08T12:55:59;6.88;;;4.72;;
63406;SDS011;49543;45.892;10.838;2023-07-08T12:58:27;5.65;;;4.80;;
63406;SDS011;49543;45.892;10.838;2023-07-08T13:00:54;5.65;;;4.30;;
63406;SDS011;49543;45.892;10.838;2023-07-08T13:03:26;5.72;;;4.22;;
63406;SDS011;49543;45.892;10.838;2023-07-08T13:05:54;5.20;;;4.30;;
63406;SDS011;49543;45.892;10.838;2023-07-08T13:08:22;7.10;;;4.90;;
63406;SDS011;49543;45.892;10.838;2023-07-08T13:10:51;5.03;;;4.10;;
63406;SDS011;49543;45.892;10.838;2023-07-08T13:13:21;4.97;;;4.28;;
63406;SDS011;49543;45.892;10.838;2023-07-08T13:18:15;6.35;;;4.30;;
63406;SDS011;49543;45.892;10.838;2023-07-08T13:20:45;5.55;;;4.25;;
63406;SDS011;49543;45.892;10.838;2023-07-08T13:23:14;6.00;;;4.30;;
63406;SDS011;49543;45.892;10.838;2023-07-08T13:25:40;5.03;;;4.13;;
63406;SDS011;49543;45.892;10.838;2023-07-08T13:28:16;4.90;;;4.40;;
63406;SDS011;49543;45.892;10.838;2023-07-08T13:31:00;6.32;;;4.45;;
63406;SDS011;49543;45.892;10.838;2023-07-08T13:33:31;7.05;;;4.95;;
63406;SDS011;49543;45.892;10.838;2023-07-08T13:36:00;5.72;;;4.90;;
63406;SDS011;49543;45.892;10.838;2023-07-08T13:41:03;5.60;;;4.60;;
63406;SDS011;49543;45.892;10.838;2023-07-08T13:43:39;5.70;;;4.15;;
63406;SDS011;49543;45.892;10.838;2023-07-08T13:46:25;6.82;;;4.18;;
63406;SDS011;49543;45.892;10.838;2023-07-08T13:49:13;6.07;;;4.88;;
63406;SDS011;49543;45.892;10.838;2023-07-08T13:51:40;7.88;;;4.75;;
63406;SDS011;49543;45.892;10.838;2023-07-08T13:54:11;6.05;;;4.40;;
63406;SDS011;49543;45.892;10.838;2023-07-08T13:56:40;5.32;;;4.28;;
63406;SDS011;49543;45.892;10.838;2023-07-08T13:59:08;6.75;;;4.68;;
63406;SDS011;49543;45.892;10.838;2023-07-08T14:01:39;5.35;;;4.28;;
63406;SDS011;49543;45.892;10.838;2023-07-08T14:04:06;6.70;;;4.40;;
63406;SDS011;49543;45.892;10.838;2023-07-08T14:06:34;6.43;;;4.97;;
63406;SDS011;49543;45.892;10.838;2023-07-08T14:09:06;6.55;;;4.70;;
63406;SDS011;49543;45.892;10.838;2023-07-08T14:11:37;5.60;;;4.78;;
63406;SDS011;49543;45.892;10.838;2023-07-08T14:14:02;5.68;;;4.40;;
63406;SDS011;49543;45.892;10.838;2023-07-08T14:16:29;5.30;;;4.60;;
63406;SDS011;49543;45.892;10.838;2023-07-08T14:18:59;5.78;;;4.30;;
63406;SDS011;49543;45.892;10.838;2023-07-08T14:21:28;5.78;;;4.30;;
63406;SDS011;49543;45.892;10.838;2023-07-08T14:23:55;4.85;;;3.92;;
63406;SDS011;49543;45.892;10.838;2023-07-08T14:26:20;6.43;;;4.45;;
63406;SDS011;49543;45.892;10.838;2023-07-08T14:28:46;6.85;;;4.90;;
63406;SDS011;49543;45.892;10.838;2023-07-08T14:31:12;5.97;;;4.80;;
63406;SDS011;49543;45.892;10.838;2023-07-08T17:04:58;19.37;;;12.43;;
63406;SDS011;49543;45.892;10.838;2023-07-08T17:07:27;14.95;;;7.90;;
63406;SDS011;49543;45.892;10.838;2023-07-08T17:09:54;9.40;;;6.75;;
63406;SDS011;49543;45.892;10.838;2023-07-08T17:12:19;8.93;;;6.90;;
63406;SDS011;49543;45.892;10.838;2023-07-08T17:14:47;8.35;;;5.82;;
63406;SDS011;49543;45.892;10.838;2023-07-08T17:17:12;6.40;;;4.82;;
63406;SDS011;49543;45.892;10.838;2023-07-08T17:19:39;6.28;;;5.20;;
63406;SDS011;49543;45.892;10.838;2023-07-08T17:22:07;6.82;;;5.00;;
63406;SDS011;49543;45.892;10.838;2023-07-08T17:24:34;6.32;;;4.97;;
63406;SDS011;49543;45.892;10.838;2023-07-08T17:27:00;7.43;;;5.20;;
63406;SDS011;49543;45.892;10.838;2023-07-08T17:29:25;6.20;;;4.90;;
63406;SDS011;49543;45.892;10.838;2023-07-08T17:31:51;7.35;;;5.32;;
63406;SDS011;49543;45.892;10.838;2023-07-08T17:34:21;7.22;;;4.85;;
63406;SDS011;49543;45.892;10.838;2023-07-08T17:36:48;8.02;;;5.70;;
63406;SDS011;49543;45.892;10.838;2023-07-08T17:39:15;7.72;;;5.55;;
63406;SDS011;49543;45.892;10.838;2023-07-08T17:41:41;6.97;;;5.68;;
63406;SDS011;49543;45.892;10.838;2023-07-08T17:44:09;10.27;;;7.05;;
63406;SDS011;49543;45.892;10.838;2023-07-08T17:46:36;11.65;;;8.13;;
63406;SDS011;49543;45.892;10.838;2023-07-08T17:49:01;16.75;;;10.98;;
63406;SDS011;49543;45.892;10.838;2023-07-08T17:51:28;7.65;;;5.30;;
63406;SDS011;49543;45.892;10.838;2023-07-08T17:53:59;7.45;;;4.47;;
63406;SDS011;49543;45.892;10.838;2023-07-08T17:56:28;5.40;;;4.55;;
63406;SDS011;49543;45.892;10.838;2023-07-08T17:59:04;6.18;;;4.68;;
63406;SDS011;49543;45.892;10.838;2023-07-08T18:01:33;7.13;;;4.90;;
63406;SDS011;49543;45.892;10.838;2023-07-08T18:03:58;5.82;;;4.70;;
63406;SDS011;49543;45.892;10.838;2023-07-08T18:06:24;6.43;;;4.90;;
63406;SDS011;49543;45.892;10.838;2023-07-08T18:08:53;6.10;;;5.20;;
63406;SDS011;49543;45.892;10.838;2023-07-08T18:11:19;7.30;;;5.03;;
63406;SDS011;49543;45.892;10.838;2023-07-08T18:13:52;5.57;;;4.47;;
63406;SDS011;49543;45.892;10.838;2023-07-08T18:16:23;5.47;;;4.53;;
63406;SDS011;49543;45.892;10.838;2023-07-08T18:18:49;7.18;;;4.80;;
63406;SDS011;49543;45.892;10.838;2023-07-08T18:21:21;5.60;;;4.50;;
63406;SDS011;49543;45.892;10.838;2023-07-08T18:23:48;7.45;;;4.68;;
63406;SDS011;49543;45.892;10.838;2023-07-08T18:26:16;6.60;;;5.15;;
63406;SDS011;49543;45.892;10.838;2023-07-08T18:28:46;5.85;;;4.50;;
63406;SDS011;49543;45.892;10.838;2023-07-08T18:31:13;8.82;;;5.45;;
63406;SDS011;49543;45.892;10.838;2023-07-08T18:33:43;5.82;;;4.35;;
63406;SDS011;49543;45.892;10.838;2023-07-08T18:36:19;6.35;;;5.25;;
63406;SDS011;49543;45.892;10.838;2023-07-08T18:38:44;7.07;;;5.30;;
63406;SDS011;49543;45.892;10.838;2023-07-08T18:41:17;9.50;;;4.97;;
63406;SDS011;49543;45.892;10.838;2023-07-08T18:43:46;7.30;;;5.07;;
63406;SDS011;49543;45.892;10.838;2023-07-08T18:46:13;6.22;;;4.25;;
63406;SDS011;49543;45.892;10.838;2023-07-08T18:48:40;6.75;;;4.97;;
63406;SDS011;49543;45.892;10.838;2023-07-08T18:51:12;8.40;;;6.00;;
63406;SDS011;49543;45.892;10.838;2023-07-08T18:53:43;10.48;;;5.13;;
63406;SDS011;49543;45.892;10.838;2023-07-08T18:56:15;6.95;;;5.10;;
63406;SDS011;49543;45.892;10.838;2023-07-08T18:58:45;7.68;;;5.53;;
63406;SDS011;49543;45.892;10.838;2023-07-08T19:03:41;6.88;;;5.03;;
63406;SDS011;49543;45.892;10.838;2023-07-08T19:06:14;7.38;;;4.75;;
63406;SDS011;49543;45.892;10.838;2023-07-08T19:08:41;8.02;;;5.43;;
63406;SDS011;49543;45.892;10.838;2023-07-08T19:11:29;6.85;;;4.88;;
63406;SDS011;49543;45.892;10.838;2023-07-08T19:13:58;7.13;;;4.95;;
63406;SDS011;49543;45.892;10.838;2023-07-08T19:16:23;6.20;;;4.72;;
63406;SDS011;49543;45.892;10.838;2023-07-08T19:18:49;7.38;;;5.07;;
63406;SDS011;49543;45.892;10.838;2023-07-08T19:21:20;6.35;;;4.65;;
63406;SDS011;49543;45.892;10.838;2023-07-08T19:23:52;7.22;;;4.88;;
63406;SDS011;49543;45.892;10.838;2023-07-08T19:26:21;7.25;;;4.78;;
63406;SDS011;49543;45.892;10.838;2023-07-08T19:28:49;6.65;;;4.75;;
63406;SDS011;49543;45.892;10.838;2023-07-08T19:33:48;8.18;;;5.10;;
63406;SDS011;49543;45.892;10.838;2023-07-08T19:36:16;5.60;;;4.80;;
63406;SDS011;49543;45.892;10.838;2023-07-08T19:38:44;5.55;;;4.50;;
63406;SDS011;49543;45.892;10.838;2023-07-08T19:41:13;8.30;;;4.38;;
63406;SDS011;49543;45.892;10.838;2023-07-08T19:43:40;5.80;;;4.50;;
63406;SDS011;49543;45.892;10.838;2023-07-08T19:46:11;6.18;;;4.82;;
63406;SDS011;49543;45.892;10.838;2023-07-08T19:48:39;6.32;;;4.97;;
63406;SDS011;49543;45.892;10.838;2023-07-08T19:51:05;7.47;;;5.28;;
63406;SDS011;49543;45.892;10.838;2023-07-08T19:53:30;6.43;;;4.40;;
63406;SDS011;49543;45.892;10.838;2023-07-08T19:55:56;7.55;;;5.10;;
63406;SDS011;49543;45.892;10.838;2023-07-08T19:58:22;7.90;;;5.50;;
63406;SDS011;49543;45.892;10.838;2023-07-08T20:00:47;7.60;;;4.93;;
63406;SDS011;49543;45.892;10.838;2023-07-08T20:03:13;6.72;;;4.97;;
63406;SDS011;49543;45.892;10.838;2023-07-08T20:05:40;6.05;;;4.95;;
63406;SDS011;49543;45.892;10.838;2023-07-08T20:10:41;11.90;;;8.48;;
63406;SDS011;49543;45.892;10.838;2023-07-08T20:13:10;9.73;;;7.00;;
63406;SDS011;49543;45.892;10.838;2023-07-08T20:15:36;8.88;;;6.50;;
63406;SDS011;49543;45.892;10.838;2023-07-08T20:18:05;8.55;;;6.03;;
63406;SDS011;49543;45.892;10.838;2023-07-08T20:20:34;32.17;;;25.73;;
63406;SDS011;49543;45.892;10.838;2023-07-08T20:22:59;43.47;;;36.90;;
63406;SDS011;49543;45.892;10.838;2023-07-08T20:25:26;51.80;;;45.80;;
63406;SDS011;49543;45.892;10.838;2023-07-08T20:27:52;44.40;;;39.17;;
63406;SDS011;49543;45.892;10.838;2023-07-08T20:30:18;27.65;;;24.65;;
63406;SDS011;49543;45.892;10.838;2023-07-08T20:32:46;12.07;;;10.68;;
63406;SDS011;49543;45.892;10.838;2023-07-08T20:35:13;9.10;;;6.32;;
63406;SDS011;49543;45.892;10.838;2023-07-08T20:37:40;9.38;;;5.57;;
63406;SDS011;49543;45.892;10.838;2023-07-08T20:40:25;6.75;;;5.15;;
63406;SDS011;49543;45.892;10.838;2023-07-08T20:42:52;7.97;;;5.15;;
63406;SDS011;49543;45.892;10.838;2023-07-08T20:45:29;5.60;;;4.72;;
63406;SDS011;49543;45.892;10.838;2023-07-08T20:47:56;7.00;;;4.43;;
63406;SDS011;49543;45.892;10.838;2023-07-08T20:50:26;7.63;;;4.82;;
63406;SDS011;49543;45.892;10.838;2023-07-08T20:52:53;7.32;;;4.93;;
63406;SDS011;49543;45.892;10.838;2023-07-08T20:55:19;6.90;;;5.32;;
63406;SDS011;49543;45.892;10.838;2023-07-08T20:57:49;6.68;;;4.57;;
63406;SDS011;49543;45.892;10.838;2023-07-08T21:00:23;7.25;;;4.93;;
63406;SDS011;49543;45.892;10.838;2023-07-08T21:02:56;7.07;;;5.00;;
63406;SDS011;49543;45.892;10.838;2023-07-08T21:05:23;5.82;;;4.53;;
63406;SDS011;49543;45.892;10.838;2023-07-08T21:07:55;7.72;;;5.10;;
63406;SDS011;49543;45.892;10.838;2023-07-08T21:10:22;6.50;;;4.82;;
63406;SDS011;49543;45.892;10.838;2023-07-08T21:12:49;6.40;;;5.45;;
63406;SDS011;49543;45.892;10.838;2023-07-08T21:15:17;5.35;;;4.28;;
63406;SDS011;49543;45.892;10.838;2023-07-08T21:17:44;6.10;;;5.07;;
63406;SDS011;49543;45.892;10.838;2023-07-08T21:22:45;6.35;;;4.30;;
63406;SDS011;49543;45.892;10.838;2023-07-08T21:25:11;6.93;;;5.07;;
63406;SDS011;49543;45.892;10.838;2023-07-08T21:27:38;7.22;;;4.85;;
63406;SDS011;49543;45.892;10.838;2023-07-08T21:30:13;6.85;;;4.97;;
63406;SDS011;49543;45.892;10.838;2023-07-08T21:32:40;7.35;;;4.78;;
63406;SDS011;49543;45.892;10.838;2023-07-08T21:35:05;6.22;;;4.85;;
63406;SDS011;49543;45.892;10.838;2023-07-08T21:37:35;5.90;;;5.00;;
63406;SDS011;49543;45.892;10.838;2023-07-08T21:40:01;6.57;;;4.95;;
63406;SDS011;49543;45.892;10.838;2023-07-08T21:42:27;6.28;;;4.95;;
63406;SDS011;49543;45.892;10.838;2023-07-08T21:44:53;7.80;;;5.55;;
63406;SDS011;49543;45.892;10.838;2023-07-08T21:47:19;7.30;;;5.80;;
63406;SDS011;49543;45.892;10.838;2023-07-08T21:49:46;7.43;;;5.43;;
63406;SDS011;49543;45.892;10.838;2023-07-08T21:52:12;5.95;;;4.90;;
63406;SDS011;49543;45.892;10.838;2023-07-08T21:54:37;6.47;;;5.05;;
63406;SDS011;49543;45.892;10.838;2023-07-08T21:57:03;7.03;;;5.63;;
63406;SDS011;49543;45.892;10.838;2023-07-08T21:59:29;8.48;;;5.72;;
63406;SDS011;49543;45.892;10.838;2023-07-08T22:01:54;6.70;;;4.82;;
63406;SDS011;49543;45.892;10.838;2023-07-08T22:04:20;6.20;;;4.47;;
63406;SDS011;49543;45.892;10.838;2023-07-08T22:06:46;7.10;;;4.97;;
63406;SDS011;49543;45.892;10.838;2023-07-08T22:09:12;7.65;;;4.93;;
63406;SDS011;49543;45.892;10.838;2023-07-08T22:11:37;7.20;;;4.88;;
